Time;durP1;ratioP1;P1;durP2;ratioP2;P2;SDS_P1;SDS_P2;PMS_P1;PMS_P2;Temp;Humidity;BMP_temperature;BMP_pressure;BME280_temperature;BME280_humidity;BME280_pressure;Samples;Min_cycle;Max_cycle;Signal;HPM_P1;HPM_P2
2021/01/29 00:00:59;;;;;;;9.90;8.90;;;8.30;99.90;;;;;;5069747;28;20382;-74
2021/01/29 00:03:29;;;;;;;10.70;9.43;;;8.30;99.90;;;;;;5068647;28;20747;-74
2021/01/29 00:06:02;;;;;;;11.70;10.03;;;8.40;99.90;;;;;;5062743;28;20419;-75
2021/01/29 00:08:31;;;;;;;9.70;8.80;;;8.40;99.90;;;;;;5071342;28;20562;-74
2021/01/29 00:10:59;;;;;;;9.90;9.00;;;8.30;99.90;;;;;;5091417;28;20441;-75
2021/01/29 00:13:27;;;;;;;10.30;9.10;;;8.30;99.90;;;;;;5088620;28;20445;-74
2021/01/29 00:15:55;;;;;;;10.93;9.80;;;8.30;99.90;;;;;;5067285;28;20439;-74
2021/01/29 00:18:23;;;;;;;10.10;9.20;;;8.30;99.90;;;;;;5072183;28;20414;-75
2021/01/29 00:20:51;;;;;;;10.97;9.67;;;8.30;99.90;;;;;;5050414;28;20527;-75
2021/01/29 00:23:19;;;;;;;11.10;9.60;;;8.40;99.90;;;;;;5052252;28;20375;-74
2021/01/29 00:25:50;;;;;;;11.50;9.60;;;8.40;99.90;;;;;;5063516;28;20398;-75
2021/01/29 00:28:19;;;;;;;11.27;9.67;;;8.40;99.90;;;;;;5045332;28;20499;-75
2021/01/29 00:30:49;;;;;;;11.27;10.20;;;8.40;99.90;;;;;;5031170;28;20443;-75
2021/01/29 00:33:19;;;;;;;10.40;9.40;;;8.40;99.90;;;;;;5044135;28;20460;-74
2021/01/29 00:35:45;;;;;;;10.20;9.10;;;8.50;99.90;;;;;;5051432;28;20408;-75
2021/01/29 00:38:12;;;;;;;10.70;9.70;;;8.50;99.90;;;;;;5034527;28;20432;-75
2021/01/29 00:40:38;;;;;;;10.37;9.40;;;8.50;99.90;;;;;;5039758;28;20532;-76
2021/01/29 00:43:05;;;;;;;10.60;9.30;;;8.50;99.90;;;;;;5052810;28;20458;-75
2021/01/29 00:45:33;;;;;;;10.40;9.13;;;8.50;99.90;;;;;;5051994;28;20427;-75
2021/01/29 00:47:59;;;;;;;10.80;9.80;;;8.60;99.90;;;;;;5035000;28;20468;-75
2021/01/29 00:50:26;;;;;;;10.57;9.47;;;8.60;99.90;;;;;;5014570;28;20395;-76
2021/01/29 00:52:53;;;;;;;11.20;9.60;;;8.60;99.90;;;;;;5031421;28;20399;-75
2021/01/29 00:55:20;;;;;;;10.10;9.10;;;8.60;99.90;;;;;;5032070;28;20396;-75
2021/01/29 00:57:47;;;;;;;11.33;8.97;;;8.60;99.90;;;;;;5031453;28;20883;-75
2021/01/29 01:00:14;;;;;;;9.43;8.43;;;8.60;99.90;;;;;;5032099;28;20502;-75
2021/01/29 01:02:40;;;;;;;9.37;8.03;;;8.60;99.90;;;;;;5032997;28;20399;-79
2021/01/29 01:05:07;;;;;;;10.13;9.03;;;8.70;99.90;;;;;;5031275;28;20435;-74
2021/01/29 01:07:33;;;;;;;9.63;8.63;;;8.70;99.90;;;;;;5036203;28;20441;-75
2021/01/29 01:09:58;;;;;;;9.93;8.70;;;8.70;99.90;;;;;;5051101;28;20451;-75
2021/01/29 01:12:25;;;;;;;8.90;8.00;;;8.70;99.90;;;;;;5050154;28;20193;-75
2021/01/29 01:14:51;;;;;;;8.90;8.00;;;8.70;99.90;;;;;;5035144;28;20672;-75
2021/01/29 01:17:17;;;;;;;8.60;7.70;;;8.70;99.90;;;;;;5023178;28;20884;-75
2021/01/29 01:19:43;;;;;;;9.80;8.30;;;8.80;99.90;;;;;;5021345;28;20421;-79
2021/01/29 01:22:09;;;;;;;8.80;7.77;;;8.80;99.90;;;;;;5036208;28;20399;-75
2021/01/29 01:24:41;;;;;;;9.60;8.70;;;8.80;99.90;;;;;;5031963;28;20422;-75
2021/01/29 01:27:12;;;;;;;8.63;7.70;;;8.80;99.90;;;;;;5013212;28;20220;-75
2021/01/29 01:29:38;;;;;;;8.83;7.67;;;8.80;99.90;;;;;;5031551;28;20428;-75
2021/01/29 01:32:04;;;;;;;8.67;7.73;;;8.80;99.90;;;;;;5045610;28;20481;-75
2021/01/29 01:34:31;;;;;;;9.10;8.10;;;8.80;99.90;;;;;;5055065;28;20530;-74
2021/01/29 01:36:57;;;;;;;10.00;7.90;;;8.90;99.90;;;;;;5054486;28;20425;-75
2021/01/29 01:39:23;;;;;;;9.67;8.17;;;8.90;99.90;;;;;;5055690;28;20877;-75
2021/01/29 01:41:51;;;;;;;9.00;7.03;;;9.00;99.90;;;;;;5054744;28;20514;-75
2021/01/29 01:44:32;;;;;;;7.90;6.67;;;9.00;99.90;;;;;;5044608;28;20184;-73
2021/01/29 01:47:04;;;;;;;8.33;7.30;;;9.00;99.90;;;;;;5034636;28;20463;-73
2021/01/29 01:49:30;;;;;;;10.20;7.23;;;9.10;99.90;;;;;;5036535;28;20761;-73
2021/01/29 01:52:22;;;;;;;7.90;6.47;;;9.10;99.90;;;;;;5016955;28;20379;-73
2021/01/29 01:54:53;;;;;;;8.23;7.23;;;9.10;99.90;;;;;;5034730;28;20431;-74
2021/01/29 01:57:23;;;;;;;8.20;7.20;;;9.10;99.90;;;;;;5049629;28;20424;-73
2021/01/29 01:59:54;;;;;;;7.40;6.57;;;9.10;99.90;;;;;;5036215;28;20562;-74
2021/01/29 02:02:25;;;;;;;11.20;8.43;;;9.10;99.90;;;;;;5036811;28;20416;-74
2021/01/29 02:04:52;;;;;;;8.70;7.30;;;9.10;99.90;;;;;;5034455;28;20399;-73
2021/01/29 02:07:32;;;;;;;10.70;7.67;;;9.20;99.90;;;;;;5017259;28;20463;-72
2021/01/29 02:10:01;;;;;;;11.33;7.50;;;9.20;99.90;;;;;;5016653;28;20432;-73
2021/01/29 02:12:27;;;;;;;14.87;9.00;;;9.20;99.90;;;;;;5035093;28;20415;-73
2021/01/29 02:14:53;;;;;;;10.70;7.73;;;9.30;99.90;;;;;;5050021;28;20511;-73
2021/01/29 02:17:37;;;;;;;11.83;8.37;;;9.30;99.90;;;;;;5054686;28;20227;-73
2021/01/29 02:20:35;;;;;;;9.40;8.03;;;9.30;99.90;;;;;;5035988;28;20166;-73
2021/01/29 02:23:22;;;;;;;13.07;8.83;;;9.40;99.90;;;;;;5048702;28;20432;-73
2021/01/29 02:25:56;;;;;;;11.00;8.10;;;9.40;99.90;;;;;;5036393;28;20395;-77
2021/01/29 02:28:40;;;;;;;13.10;8.67;;;9.40;99.90;;;;;;5054462;28;20468;-73
2021/01/29 02:31:35;;;;;;;10.87;8.80;;;9.30;99.90;;;;;;5053824;28;20939;-73
2021/01/29 02:34:35;;;;;;;10.40;8.63;;;9.30;99.90;;;;;;5053722;28;20723;-73
2021/01/29 02:37:18;;;;;;;10.40;8.20;;;9.30;99.90;;;;;;5053740;28;20438;-73
2021/01/29 02:39:44;;;;;;;10.27;8.00;;;9.30;99.90;;;;;;5054326;28;20424;-73
2021/01/29 02:42:41;;;;;;;12.30;8.27;;;9.30;99.90;;;;;;5053277;28;20883;-73
2021/01/29 02:45:23;;;;;;;10.50;8.87;;;9.30;99.90;;;;;;5016500;28;20205;-73
2021/01/29 02:48:29;;;;;;;11.27;8.20;;;9.20;99.90;;;;;;5015864;28;20474;-78
2021/01/29 02:51:05;;;;;;;11.70;8.53;;;9.20;99.90;;;;;;5033675;28;20774;-73
2021/01/29 02:53:44;;;;;;;8.63;7.40;;;9.20;99.90;;;;;;5038406;28;20698;-73
2021/01/29 02:56:27;;;;;;;9.20;8.20;;;9.30;99.90;;;;;;5053160;28;21202;-73
2021/01/29 02:59:04;;;;;;;11.57;8.83;;;9.30;99.90;;;;;;5035727;28;20503;-73
2021/01/29 03:01:43;;;;;;;15.10;8.90;;;9.20;99.90;;;;;;5054144;28;20446;-73
2021/01/29 03:04:44;;;;;;;13.53;8.90;;;9.30;99.90;;;;;;5053265;28;20392;-73
2021/01/29 03:07:20;;;;;;;16.93;9.00;;;9.30;99.90;;;;;;5039509;28;20473;-73
2021/01/29 03:10:04;;;;;;;11.03;8.70;;;9.30;99.90;;;;;;5054015;28;20395;-73
2021/01/29 03:12:44;;;;;;;12.27;8.90;;;9.30;99.90;;;;;;5020365;28;20909;-73
2021/01/29 03:15:21;;;;;;;15.13;9.40;;;9.40;99.90;;;;;;5052692;28;20873;-73
2021/01/29 03:18:01;;;;;;;14.10;9.80;;;9.40;99.90;;;;;;5034503;28;20432;-73
2021/01/29 03:20:39;;;;;;;13.00;9.37;;;9.50;99.90;;;;;;5053612;28;20380;-73
2021/01/29 03:23:26;;;;;;;16.57;9.60;;;9.50;99.90;;;;;;5052871;28;20403;-73
2021/01/29 03:25:56;;;;;;;12.27;8.20;;;9.50;99.90;;;;;;5053026;28;20431;-78
2021/01/29 03:28:29;;;;;;;13.20;8.53;;;9.30;99.90;;;;;;5053308;28;20502;-73
2021/01/29 03:30:57;;;;;;;10.50;8.57;;;9.30;99.90;;;;;;5052719;28;20451;-73
2021/01/29 03:33:28;;;;;;;11.90;9.00;;;9.50;99.90;;;;;;5035707;28;20409;-73
2021/01/29 03:36:06;;;;;;;10.10;8.30;;;9.50;99.90;;;;;;5052737;28;20404;-73
2021/01/29 03:38:44;;;;;;;8.80;7.80;;;9.60;99.90;;;;;;5053084;28;20911;-73
2021/01/29 03:41:16;;;;;;;9.30;7.60;;;9.60;99.90;;;;;;5052283;28;20942;-73
2021/01/29 03:44:13;;;;;;;11.23;7.53;;;9.60;99.90;;;;;;5046882;28;20909;-73
2021/01/29 03:47:00;;;;;;;7.83;6.90;;;9.70;99.90;;;;;;5015649;28;20389;-73
2021/01/29 03:49:45;;;;;;;8.63;6.60;;;9.70;99.90;;;;;;5033282;28;20417;-73
2021/01/29 03:52:21;;;;;;;6.77;6.17;;;9.70;99.90;;;;;;5032370;28;20460;-73
2021/01/29 03:55:09;;;;;;;7.90;6.20;;;9.80;99.90;;;;;;5015088;28;20417;-73
2021/01/29 03:58:02;;;;;;;9.83;7.07;;;9.90;99.90;;;;;;5033316;28;20393;-73
2021/01/29 04:00:56;;;;;;;8.07;7.10;;;9.90;99.90;;;;;;5032490;28;20417;-73
2021/01/29 04:03:41;;;;;;;8.33;7.27;;;10.00;99.90;;;;;;5032752;28;20928;-74
2021/01/29 04:06:13;;;;;;;8.00;7.27;;;10.00;99.90;;;;;;5032018;28;20460;-73
2021/01/29 04:09:00;;;;;;;10.37;6.73;;;10.00;99.90;;;;;;5015328;28;20464;-73
2021/01/29 04:11:39;;;;;;;7.10;6.43;;;10.00;99.90;;;;;;5032669;28;20496;-71
2021/01/29 04:14:10;;;;;;;5.90;5.33;;;10.00;99.90;;;;;;5031862;28;20504;-72
2021/01/29 04:16:40;;;;;;;6.90;6.20;;;10.00;99.90;;;;;;5032637;28;20825;-71
2021/01/29 04:19:13;;;;;;;6.80;6.20;;;10.10;99.90;;;;;;5031868;28;20413;-71
2021/01/29 04:21:45;;;;;;;7.27;6.60;;;10.10;99.90;;;;;;5032489;28;20403;-71
2021/01/29 04:24:40;;;;;;;7.60;6.87;;;10.10;99.90;;;;;;5031864;28;20410;-71
2021/01/29 04:27:09;;;;;;;7.83;6.83;;;10.20;99.90;;;;;;5031322;28;20844;-71
2021/01/29 04:29:52;;;;;;;7.03;6.23;;;10.20;99.90;;;;;;5014717;28;20428;-71
2021/01/29 04:32:22;;;;;;;6.73;6.13;;;10.20;99.90;;;;;;5031994;28;20613;-71
2021/01/29 04:34:52;;;;;;;7.00;6.27;;;10.20;99.90;;;;;;5035829;28;20428;-71
2021/01/29 04:37:23;;;;;;;8.20;6.43;;;10.20;99.90;;;;;;5070072;28;20418;-71
2021/01/29 04:39:53;;;;;;;6.43;5.83;;;10.20;99.90;;;;;;5065555;28;20408;-71
2021/01/29 04:42:43;;;;;;;7.10;6.40;;;10.20;99.90;;;;;;5052548;28;20427;-71
2021/01/29 04:45:27;;;;;;;6.10;5.33;;;10.20;99.90;;;;;;5069650;28;20903;-71
2021/01/29 04:48:02;;;;;;;6.97;6.40;;;10.10;99.90;;;;;;5037555;28;20424;-71
2021/01/29 04:50:49;;;;;;;5.63;5.13;;;10.10;99.90;;;;;;5044271;28;20420;-71
2021/01/29 04:53:43;;;;;;;5.30;4.63;;;10.10;99.90;;;;;;5042450;28;21046;-71
2021/01/29 04:56:22;;;;;;;4.90;4.50;;;10.10;99.90;;;;;;5036294;28;20425;-71
2021/01/29 04:59:30;;;;;;;9.20;5.20;;;10.10;99.90;;;;;;5032308;28;20390;-71
2021/01/29 05:02:17;;;;;;;6.37;5.87;;;10.10;99.90;;;;;;5031756;28;20803;-73
2021/01/29 05:05:13;;;;;;;8.47;7.57;;;10.10;99.90;;;;;;5014217;28;20406;-71
2021/01/29 05:07:39;;;;;;;5.87;5.27;;;10.10;99.90;;;;;;5034415;28;20452;-71
2021/01/29 05:10:20;;;;;;;6.17;5.20;;;10.10;99.90;;;;;;5036485;28;20423;-71
2021/01/29 05:12:48;;;;;;;4.50;4.20;;;10.10;99.90;;;;;;5036251;28;20166;-71
2021/01/29 05:15:25;;;;;;;4.40;4.00;;;10.10;99.90;;;;;;5051857;28;20450;-71
2021/01/29 05:17:51;;;;;;;5.13;4.63;;;10.10;99.90;;;;;;5053511;28;20424;-71
2021/01/29 05:20:44;;;;;;;5.57;5.07;;;10.10;99.90;;;;;;5075103;28;20406;-71
2021/01/29 05:23:21;;;;;;;5.40;5.00;;;10.10;99.90;;;;;;5055630;28;20169;-71
2021/01/29 05:26:19;;;;;;;5.27;4.83;;;10.10;99.90;;;;;;5038291;28;20447;-71
2021/01/29 05:29:19;;;;;;;6.23;5.40;;;10.10;99.90;;;;;;5055850;28;20554;-71
2021/01/29 05:32:01;;;;;;;5.60;5.20;;;10.10;99.90;;;;;;5055717;28;20831;-71
2021/01/29 05:34:36;;;;;;;5.17;4.77;;;10.10;99.90;;;;;;5055966;28;20717;-70
2021/01/29 05:37:27;;;;;;;5.27;4.83;;;10.10;99.90;;;;;;5036208;28;20754;-71
2021/01/29 05:40:08;;;;;;;5.10;4.60;;;10.10;99.90;;;;;;5035680;28;20397;-71
2021/01/29 05:43:03;;;;;;;7.33;6.73;;;10.10;99.90;;;;;;5035691;28;20464;-71
2021/01/29 05:45:52;;;;;;;5.53;4.70;;;10.10;99.90;;;;;;5037085;28;20451;-71
2021/01/29 05:48:30;;;;;;;4.77;4.30;;;10.20;99.90;;;;;;5049700;28;20806;-72
2021/01/29 05:51:11;;;;;;;6.00;5.50;;;10.20;99.90;;;;;;5055417;28;20502;-71
2021/01/29 05:53:45;;;;;;;3.80;3.50;;;10.20;99.90;;;;;;5049127;28;20417;-71
2021/01/29 05:56:43;;;;;;;4.37;4.03;;;10.10;99.90;;;;;;5034588;28;20499;-70
2021/01/29 05:59:11;;;;;;;7.80;4.30;;;10.20;99.90;;;;;;5053143;28;20415;-71
2021/01/29 06:01:50;;;;;;;4.60;3.70;;;10.20;99.90;;;;;;5049846;28;20923;-71
2021/01/29 06:04:21;;;;;;;4.30;4.00;;;10.30;99.90;;;;;;5036965;28;20457;-71
2021/01/29 06:07:15;;;;;;;5.17;4.77;;;10.30;99.90;;;;;;5037730;28;20452;-71
2021/01/29 06:10:12;;;;;;;6.47;5.87;;;10.30;99.90;;;;;;5054138;28;20858;-71
2021/01/29 06:12:59;;;;;;;4.50;4.00;;;10.30;99.90;;;;;;5035710;28;20428;-71
2021/01/29 06:15:47;;;;;;;4.97;4.67;;;10.40;99.90;;;;;;5051007;28;20452;-71
2021/01/29 06:18:24;;;;;;;3.70;3.40;;;10.40;99.90;;;;;;5054707;28;20424;-71
2021/01/29 06:20:59;;;;;;;4.57;4.17;;;10.40;99.90;;;;;;5037497;28;20412;-71
2021/01/29 06:23:49;;;;;;;4.30;4.00;;;10.40;99.90;;;;;;5053111;28;20510;-71
2021/01/29 06:26:41;;;;;;;3.97;3.30;;;10.40;99.90;;;;;;5036804;28;20476;-71
2021/01/29 06:29:38;;;;;;;4.63;4.23;;;10.40;99.90;;;;;;5053996;28;20475;-71
2021/01/29 06:32:35;;;;;;;6.40;6.00;;;10.50;99.90;;;;;;5046295;28;20435;-72
2021/01/29 06:35:38;;;;;;;4.10;3.90;;;10.50;99.90;;;;;;5051565;28;20408;-73
2021/01/29 06:38:28;;;;;;;5.60;5.20;;;10.50;99.90;;;;;;5036721;28;20777;-71
2021/01/29 06:41:20;;;;;;;3.80;3.50;;;10.50;99.90;;;;;;5048666;28;20421;-71
2021/01/29 06:43:51;;;;;;;5.60;5.20;;;10.50;99.90;;;;;;5040836;28;20437;-71
2021/01/29 06:46:26;;;;;;;4.93;4.63;;;10.40;99.90;;;;;;5053507;28;20799;-71
2021/01/29 06:49:33;;;;;;;4.47;3.83;;;10.40;99.90;;;;;;5054367;28;20447;-70
2021/01/29 06:52:33;;;;;;;4.47;4.20;;;10.40;99.90;;;;;;4950674;29;20494;-71
2021/01/29 06:55:25;;;;;;;3.90;3.70;;;10.40;99.90;;;;;;4965712;28;20440;-70
2021/01/29 06:58:18;;;;;;;3.17;2.90;;;10.50;99.90;;;;;;5028870;28;20432;-70
2021/01/29 07:00:56;;;;;;;3.00;2.80;;;10.50;99.90;;;;;;5049520;28;20471;-71
2021/01/29 07:03:45;;;;;;;3.80;3.60;;;10.50;99.90;;;;;;5044625;28;20419;-71
2021/01/29 07:06:20;;;;;;;5.37;4.87;;;10.50;99.90;;;;;;5037393;28;20413;-71
2021/01/29 07:08:49;;;;;;;4.20;4.00;;;10.50;99.90;;;;;;5044250;28;20842;-70
2021/01/29 07:11:24;;;;;;;5.50;5.10;;;10.50;99.90;;;;;;5031510;28;20433;-71
2021/01/29 07:14:43;;;;;;;4.50;4.10;;;10.50;99.90;;;;;;5003842;28;20826;-71
2021/01/29 07:17:11;;;;;;;4.63;4.23;;;10.50;99.90;;;;;;4971317;28;20444;-73
2021/01/29 07:19:55;;;;;;;5.07;4.53;;;10.50;99.90;;;;;;4971991;28;21015;-71
2021/01/29 07:22:48;;;;;;;4.30;4.00;;;10.30;99.90;;;;;;5011031;28;20437;-72
2021/01/29 07:25:36;;;;;;;5.93;5.53;;;10.30;99.90;;;;;;5032814;28;20562;-72
2021/01/29 07:28:25;;;;;;;4.20;3.90;;;10.30;99.90;;;;;;5032838;28;20500;-74
2021/01/29 07:31:08;;;;;;;4.60;4.23;;;10.30;99.90;;;;;;5051701;28;20431;-74
2021/01/29 07:33:45;;;;;;;4.47;4.17;;;10.20;99.90;;;;;;5052456;28;20416;-74
2021/01/29 07:36:38;;;;;;;5.33;5.00;;;10.30;99.90;;;;;;5052142;28;20895;-79
2021/01/29 07:39:06;;;;;;;6.00;5.60;;;10.40;99.90;;;;;;5015145;28;20422;-75
2021/01/29 07:41:51;;;;;;;5.40;5.00;;;10.50;99.90;;;;;;5032992;28;20472;-75
2021/01/29 07:45:10;;;;;;;6.03;5.63;;;10.40;99.90;;;;;;5033475;28;20433;-79
2021/01/29 07:47:50;;;;;;;5.13;4.83;;;10.40;99.90;;;;;;4991113;28;20974;-78
2021/01/29 07:50:31;;;;;;;5.20;4.07;;;10.50;99.90;;;;;;4986499;28;20432;-75
2021/01/29 07:53:12;;;;;;;4.90;4.60;;;10.50;99.90;;;;;;5012899;28;20479;-75
2021/01/29 07:55:38;;;;;;;4.60;4.30;;;10.50;99.90;;;;;;5032405;28;20405;-75
2021/01/29 07:58:06;;;;;;;4.00;3.80;;;10.50;99.90;;;;;;5030704;28;20428;-75
2021/01/29 08:00:39;;;;;;;3.57;3.37;;;10.50;99.90;;;;;;5035725;28;20634;-74
2021/01/29 08:03:26;;;;;;;4.73;4.10;;;10.50;99.90;;;;;;5039805;28;20424;-75
2021/01/29 08:06:16;;;;;;;4.13;3.90;;;10.40;99.90;;;;;;5027633;28;20413;-75
2021/01/29 08:08:54;;;;;;;4.00;3.70;;;10.50;99.90;;;;;;5036152;28;20782;-75
2021/01/29 08:11:20;;;;;;;4.30;4.10;;;10.50;99.90;;;;;;5053669;28;20773;-75
2021/01/29 08:14:24;;;;;;;5.53;5.20;;;10.50;99.90;;;;;;5064101;28;20426;-74
2021/01/29 08:17:16;;;;;;;5.60;5.20;;;10.50;99.90;;;;;;5051550;28;20412;-76
2021/01/29 08:20:33;;;;;;;5.77;5.23;;;10.80;99.90;;;;;;5053161;28;20411;-75
2021/01/29 08:23:25;;;;;;;6.43;6.03;;;11.10;99.90;;;;;;5001655;28;20439;-75
2021/01/29 08:26:04;;;;;;;5.00;4.70;;;11.70;99.90;;;;;;5032835;28;20410;-75
2021/01/29 08:28:44;;;;;;;5.70;5.37;;;12.10;99.90;;;;;;5045002;28;20516;-75
2021/01/29 08:31:37;;;;;;;5.67;5.23;;;12.30;99.90;;;;;;5060696;28;20416;-76
2021/01/29 08:34:47;;;;;;;6.00;5.60;;;12.40;99.90;;;;;;5059160;28;20432;-75
2021/01/29 08:37:37;;;;;;;4.67;4.37;;;12.50;99.90;;;;;;5056895;28;20424;-76
2021/01/29 08:40:21;;;;;;;5.60;5.17;;;12.80;99.90;;;;;;5062139;28;20419;-74
2021/01/29 08:42:59;;;;;;;5.90;5.50;;;12.70;99.90;;;;;;5066676;28;20410;-74
2021/01/29 08:45:41;;;;;;;5.80;5.50;;;12.50;99.90;;;;;;5063729;28;20421;-74
2021/01/29 08:48:51;;;;;;;7.10;6.60;;;12.30;99.90;;;;;;5067177;28;20448;-74
2021/01/29 08:51:27;;;;;;;6.20;5.80;;;12.10;99.90;;;;;;5005279;28;20939;-75
2021/01/29 08:54:21;;;;;;;6.13;5.57;;;11.90;99.90;;;;;;5003293;28;20427;-73
2021/01/29 08:57:03;;;;;;;5.83;5.43;;;11.70;99.90;;;;;;5040164;28;20771;-73
2021/01/29 08:59:34;;;;;;;5.53;5.13;;;11.60;99.90;;;;;;5050787;28;20912;-74
2021/01/29 09:02:28;;;;;;;5.40;5.00;;;11.50;99.90;;;;;;5052894;28;20426;-73
2021/01/29 09:05:04;;;;;;;5.77;5.37;;;11.50;99.90;;;;;;5069085;28;20466;-73
2021/01/29 09:07:34;;;;;;;3.80;3.50;;;11.30;99.90;;;;;;5069773;28;20533;-73
2021/01/29 09:10:27;;;;;;;4.50;4.10;;;11.20;99.90;;;;;;5072107;28;20741;-73
2021/01/29 09:13:00;;;;;;;4.27;3.70;;;11.10;99.90;;;;;;5072194;28;20482;-74
2021/01/29 09:15:51;;;;;;;5.33;4.90;;;11.10;99.90;;;;;;5051613;28;20404;-74
2021/01/29 09:18:35;;;;;;;7.97;3.80;;;11.00;99.90;;;;;;5051602;28;20411;-73
2021/01/29 09:21:12;;;;;;;5.33;4.83;;;11.00;99.90;;;;;;5052124;28;20394;-73
2021/01/29 09:23:54;;;;;;;6.27;4.57;;;11.00;99.90;;;;;;5051043;28;20385;-74
2021/01/29 09:26:43;;;;;;;6.30;5.70;;;11.00;99.90;;;;;;5051393;28;20481;-73
2021/01/29 09:29:38;;;;;;;12.87;6.00;;;10.90;99.90;;;;;;5031651;28;20474;-74
2021/01/29 09:32:11;;;;;;;9.20;5.73;;;10.80;99.90;;;;;;5030091;28;20426;-73
2021/01/29 09:34:49;;;;;;;10.83;6.00;;;10.80;99.90;;;;;;5043697;28;20458;-73
2021/01/29 09:37:20;;;;;;;5.70;5.20;;;10.80;99.90;;;;;;5050848;28;20407;-74
2021/01/29 09:39:59;;;;;;;6.27;5.70;;;10.70;99.90;;;;;;5051811;28;20400;-72
2021/01/29 09:42:43;;;;;;;7.10;4.93;;;10.70;99.90;;;;;;5069412;28;20499;-72
2021/01/29 09:45:17;;;;;;;8.77;6.47;;;10.70;99.90;;;;;;5053777;28;20420;-73
2021/01/29 09:47:46;;;;;;;6.43;5.30;;;10.60;99.90;;;;;;5051750;28;20454;-72
2021/01/29 09:50:21;;;;;;;7.67;6.33;;;10.60;99.90;;;;;;5051112;28;20421;-72
2021/01/29 09:53:05;;;;;;;7.10;6.40;;;10.60;99.90;;;;;;5063389;28;20435;-72
2021/01/29 09:55:43;;;;;;;7.27;5.97;;;10.60;99.90;;;;;;5075087;28;20427;-72
2021/01/29 09:58:19;;;;;;;6.37;5.20;;;10.60;99.90;;;;;;5074616;28;20821;-72
2021/01/29 10:00:58;;;;;;;8.07;6.30;;;10.60;99.90;;;;;;5075661;28;20402;-72
2021/01/29 10:03:51;;;;;;;8.60;6.23;;;10.60;99.90;;;;;;5074838;28;20720;-72
2021/01/29 10:06:24;;;;;;;8.20;5.17;;;10.60;99.90;;;;;;5074689;28;20892;-72
2021/01/29 10:08:56;;;;;;;6.50;5.70;;;10.60;99.90;;;;;;5075169;28;20451;-72
2021/01/29 10:11:31;;;;;;;6.70;6.20;;;10.60;99.90;;;;;;5074464;28;20399;-72
2021/01/29 10:14:02;;;;;;;7.10;5.10;;;10.60;99.90;;;;;;5058922;28;20414;-72
2021/01/29 10:16:38;;;;;;;6.13;5.20;;;10.60;99.90;;;;;;5034573;28;20795;-72
2021/01/29 10:19:28;;;;;;;8.37;5.57;;;10.60;99.90;;;;;;5036491;28;20372;-72
2021/01/29 10:21:56;;;;;;;7.63;5.30;;;10.60;99.90;;;;;;5048585;28;20419;-71
2021/01/29 10:24:45;;;;;;;7.77;6.93;;;10.50;99.90;;;;;;5045340;28;20421;-72
2021/01/29 10:27:21;;;;;;;8.70;7.80;;;10.50;99.90;;;;;;5040808;28;20469;-72
2021/01/29 10:29:59;;;;;;;8.30;6.23;;;10.60;99.90;;;;;;5035363;28;20470;-72
2021/01/29 10:32:33;;;;;;;10.03;7.43;;;10.50;99.90;;;;;;5034307;28;20465;-72
2021/01/29 10:35:14;;;;;;;8.90;5.57;;;10.60;99.90;;;;;;5034806;28;20400;-72
2021/01/29 10:38:04;;;;;;;10.97;7.27;;;10.60;99.90;;;;;;5034861;28;20409;-72
2021/01/29 10:40:37;;;;;;;10.73;6.90;;;10.50;99.90;;;;;;5034035;28;20394;-72
2021/01/29 10:43:42;;;;;;;9.20;6.57;;;10.50;99.90;;;;;;5034289;28;20757;-72
2021/01/29 10:46:08;;;;;;;9.50;6.77;;;10.50;99.90;;;;;;5030664;28;20444;-73
2021/01/29 10:49:08;;;;;;;12.40;7.50;;;10.50;99.90;;;;;;5042757;28;20452;-72
2021/01/29 10:51:53;;;;;;;17.73;8.60;;;10.50;99.90;;;;;;5049765;28;20549;-72
2021/01/29 10:54:21;;;;;;;9.17;6.77;;;10.50;99.90;;;;;;5073400;28;20405;-72
2021/01/29 10:57:04;;;;;;;14.10;8.10;;;10.50;99.90;;;;;;5074225;28;20415;-72
2021/01/29 10:59:42;;;;;;;13.63;8.20;;;10.50;99.90;;;;;;5073759;28;20400;-72
2021/01/29 11:02:13;;;;;;;11.20;7.10;;;10.50;99.90;;;;;;5073342;28;20403;-72
2021/01/29 11:04:48;;;;;;;17.97;9.23;;;10.50;99.90;;;;;;5073374;28;20455;-72
2021/01/29 11:07:30;;;;;;;17.40;8.33;;;10.50;99.90;;;;;;5073228;28;20442;-72
2021/01/29 11:10:01;;;;;;;14.87;9.20;;;10.50;99.90;;;;;;5074081;28;20875;-72
2021/01/29 11:12:41;;;;;;;15.23;8.33;;;10.50;99.90;;;;;;5073350;28;20396;-72
2021/01/29 11:15:22;;;;;;;15.40;8.90;;;10.60;99.90;;;;;;5040589;28;20432;-74
2021/01/29 11:17:58;;;;;;;15.43;7.63;;;10.60;99.90;;;;;;5053788;28;20412;-72
2021/01/29 11:20:30;;;;;;;23.70;7.90;;;10.60;99.90;;;;;;5053311;28;20489;-72
2021/01/29 11:23:20;;;;;;;14.53;7.17;;;10.60;99.90;;;;;;5053166;28;20397;-72
2021/01/29 11:25:53;;;;;;;12.20;7.17;;;10.60;99.90;;;;;;5052980;28;20405;-72
2021/01/29 11:28:31;;;;;;;17.00;7.10;;;10.70;99.90;;;;;;5052601;28;20500;-72
2021/01/29 11:31:01;;;;;;;17.53;9.20;;;10.70;99.90;;;;;;5053106;28;20424;-72
2021/01/29 11:33:31;;;;;;;16.13;7.23;;;10.80;99.90;;;;;;5052936;28;20408;-72
2021/01/29 11:36:15;;;;;;;11.47;7.07;;;10.80;99.90;;;;;;5049207;28;20402;-72
2021/01/29 11:39:03;;;;;;;17.33;7.90;;;10.70;99.90;;;;;;5032708;28;20431;-72
2021/01/29 11:41:51;;;;;;;13.37;6.40;;;10.80;99.90;;;;;;5032816;28;20789;-72
2021/01/29 11:44:34;;;;;;;16.80;7.67;;;10.80;99.90;;;;;;5050332;28;20427;-72
2021/01/29 11:47:24;;;;;;;14.23;6.10;;;10.90;99.90;;;;;;5053203;28;20487;-72
2021/01/29 11:50:16;;;;;;;11.50;6.47;;;10.90;99.90;;;;;;5032848;28;20770;-72
2021/01/29 11:53:03;;;;;;;11.30;6.30;;;10.90;99.90;;;;;;5051985;28;20507;-72
2021/01/29 11:55:39;;;;;;;11.60;9.23;;;10.90;99.90;;;;;;5052158;28;20442;-72
2021/01/29 11:58:08;;;;;;;13.83;7.60;;;10.90;99.90;;;;;;5052788;28;20441;-74
2021/01/29 12:00:38;;;;;;;12.37;8.40;;;10.90;99.90;;;;;;5053092;28;20483;-74
2021/01/29 12:03:35;;;;;;;14.03;7.10;;;11.00;99.90;;;;;;5053045;28;20472;-73
2021/01/29 12:06:19;;;;;;;13.90;6.90;;;11.00;99.90;;;;;;5049826;28;20410;-74
2021/01/29 12:09:12;;;;;;;14.57;7.87;;;11.10;99.90;;;;;;5044783;28;20450;-74
2021/01/29 12:11:44;;;;;;;15.47;8.20;;;11.10;99.90;;;;;;5041113;28;20421;-74
2021/01/29 12:14:24;;;;;;;17.90;8.53;;;11.30;99.90;;;;;;5042091;28;20421;-74
2021/01/29 12:17:00;;;;;;;14.57;6.60;;;11.30;99.90;;;;;;5052773;28;20480;-74
2021/01/29 12:19:31;;;;;;;9.70;6.43;;;11.30;99.90;;;;;;5051888;28;20700;-74
2021/01/29 12:22:23;;;;;;;16.77;7.30;;;11.30;99.90;;;;;;5052952;28;20410;-74
2021/01/29 12:25:08;;;;;;;10.60;7.00;;;11.30;99.90;;;;;;5052476;28;20500;-74
2021/01/29 12:27:39;;;;;;;15.63;8.07;;;11.30;99.90;;;;;;5051849;28;20472;-74
2021/01/29 12:30:31;;;;;;;11.17;7.83;;;11.30;99.90;;;;;;5052365;28;20523;-74
2021/01/29 12:33:06;;;;;;;10.53;7.63;;;11.30;99.90;;;;;;5052699;28;20399;-74
2021/01/29 12:35:41;;;;;;;15.13;7.87;;;11.40;99.90;;;;;;5051583;28;20415;-72
2021/01/29 12:38:36;;;;;;;14.63;7.33;;;11.30;99.90;;;;;;5051793;28;20428;-75
2021/01/29 12:41:05;;;;;;;8.97;6.63;;;11.30;99.90;;;;;;5034333;28;20441;-74
2021/01/29 12:44:01;;;;;;;18.13;7.47;;;11.30;99.90;;;;;;5051101;28;20453;-74
2021/01/29 12:46:41;;;;;;;12.97;7.40;;;11.30;99.90;;;;;;5043749;28;20413;-74
2021/01/29 12:49:31;;;;;;;14.57;7.40;;;11.20;99.90;;;;;;5032399;28;20462;-75
2021/01/29 12:52:20;;;;;;;13.70;6.70;;;11.20;99.90;;;;;;5045777;28;20429;-74
2021/01/29 12:54:58;;;;;;;10.37;7.27;;;11.10;99.90;;;;;;5038427;28;20435;-73
2021/01/29 12:57:30;;;;;;;11.50;6.50;;;11.10;99.90;;;;;;5031377;28;20504;-73
2021/01/29 13:00:07;;;;;;;14.00;7.07;;;11.10;99.90;;;;;;5051809;28;20474;-73
2021/01/29 13:02:42;;;;;;;12.60;7.10;;;11.00;99.90;;;;;;5051419;28;20463;-73
2021/01/29 13:05:12;;;;;;;17.83;7.70;;;11.10;99.90;;;;;;5041347;28;20495;-75
2021/01/29 13:07:56;;;;;;;12.10;7.03;;;11.10;99.90;;;;;;5041301;28;20461;-73
2021/01/29 13:10:36;;;;;;;12.70;6.53;;;11.10;99.90;;;;;;5040455;28;20411;-74
2021/01/29 13:13:19;;;;;;;10.60;6.03;;;11.20;99.90;;;;;;5020776;28;20504;-74
2021/01/29 13:15:50;;;;;;;12.40;6.47;;;11.20;99.90;;;;;;5038427;28;20412;-74
2021/01/29 13:18:42;;;;;;;14.43;6.40;;;11.30;99.90;;;;;;5039343;28;20758;-74
2021/01/29 13:21:17;;;;;;;14.17;8.70;;;11.30;99.90;;;;;;5039484;28;20413;-75
2021/01/29 13:23:44;;;;;;;12.17;6.20;;;11.30;99.90;;;;;;5039192;28;20425;-73
2021/01/29 13:26:13;;;;;;;9.63;6.60;;;11.30;99.90;;;;;;5039977;28;20952;-74
2021/01/29 13:29:01;;;;;;;12.43;5.87;;;11.40;99.90;;;;;;5053696;28;20589;-74
2021/01/29 13:31:36;;;;;;;9.83;6.60;;;11.40;99.90;;;;;;5024965;28;20437;-73
2021/01/29 13:34:12;;;;;;;17.53;6.87;;;11.30;99.90;;;;;;5041930;28;20727;-74
2021/01/29 13:36:39;;;;;;;13.73;6.73;;;11.40;99.90;;;;;;5024416;28;20423;-74
2021/01/29 13:39:23;;;;;;;11.00;6.73;;;11.40;99.90;;;;;;5042111;28;20457;-79
2021/01/29 13:41:59;;;;;;;10.23;6.60;;;11.40;99.90;;;;;;5043090;28;20975;-78
2021/01/29 13:44:45;;;;;;;9.00;6.50;;;11.50;99.90;;;;;;5026190;28;20765;-78
2021/01/29 13:47:33;;;;;;;11.03;5.40;;;11.50;99.90;;;;;;5042522;28;20467;-79
2021/01/29 13:50:19;;;;;;;12.33;5.13;;;11.50;99.90;;;;;;5045529;28;20395;-79